createdAt,value
2023-09-26T00:00:35.035Z,18.85
2023-09-26T00:03:37.803Z,18.79
2023-09-26T00:06:40.249Z,18.76
2023-09-26T00:09:42.936Z,18.74
2023-09-26T00:12:45.604Z,18.70
2023-09-26T00:15:48.490Z,18.58
2023-09-26T00:18:51.003Z,18.60
2023-09-26T00:21:53.839Z,18.56
2023-09-26T00:24:56.824Z,18.56
2023-09-26T00:27:59.736Z,18.52
2023-09-26T00:31:06.336Z,18.45
2023-09-26T00:34:09.294Z,18.40
2023-09-26T00:37:11.905Z,18.44
2023-09-26T00:40:20.258Z,18.45
2023-09-26T00:43:23.753Z,18.41
2023-09-26T00:46:26.732Z,18.46
2023-09-26T00:49:32.991Z,18.42
2023-09-26T00:52:37.572Z,18.48
2023-09-26T00:55:40.114Z,18.42
2023-09-26T00:58:42.994Z,18.42
2023-09-26T01:01:46.900Z,18.49
2023-09-26T01:04:50.081Z,18.43
2023-09-26T01:07:52.879Z,18.42
2023-09-26T01:10:55.633Z,18.39
2023-09-26T01:13:58.048Z,18.33
2023-09-26T01:17:00.873Z,18.29
2023-09-26T01:20:13.518Z,18.28
2023-09-26T01:23:17.446Z,18.25
2023-09-26T01:26:19.869Z,18.26
2023-09-26T01:29:22.536Z,18.11
2023-09-26T01:32:26.798Z,18.17
2023-09-26T01:35:29.712Z,18.22
2023-09-26T01:38:32.114Z,18.22
2023-09-26T01:41:34.897Z,18.19
2023-09-26T01:44:37.484Z,18.10
2023-09-26T01:47:50.583Z,18.18
2023-09-26T01:50:53.045Z,18.16
2023-09-26T01:53:55.812Z,18.23
2023-09-26T01:56:58.253Z,18.22
2023-09-26T02:00:06.835Z,18.22
2023-09-26T02:03:14.235Z,18.23
2023-09-26T02:06:17.935Z,18.21
2023-09-26T02:09:20.505Z,18.21
2023-09-26T02:12:23.618Z,18.21
2023-09-26T02:15:26.409Z,18.16
2023-09-26T02:18:29.721Z,18.12
2023-09-26T02:21:32.215Z,18.13
2023-09-26T02:24:35.070Z,18.05
2023-09-26T02:27:38.361Z,17.89
2023-09-26T02:30:42.501Z,17.99
2023-09-26T02:33:44.993Z,17.97
2023-09-26T02:36:48.735Z,18.01
2023-09-26T02:39:51.833Z,18.03
2023-09-26T02:42:54.574Z,17.97
2023-09-26T02:45:57.169Z,18.01
2023-09-26T02:49:01.541Z,17.95
2023-09-26T02:52:04.319Z,17.93
2023-09-26T02:55:08.849Z,17.91
2023-09-26T02:58:11.556Z,17.83
2023-09-26T03:01:18.183Z,17.83
2023-09-26T03:04:20.944Z,17.77
2023-09-26T03:07:23.857Z,17.77
2023-09-26T03:10:26.451Z,17.78
2023-09-26T03:13:34.048Z,17.79
2023-09-26T03:16:36.867Z,17.82
2023-09-26T03:19:39.831Z,17.87
2023-09-26T03:22:42.943Z,17.92
2023-09-26T03:25:45.603Z,17.92
2023-09-26T03:28:48.172Z,17.95
2023-09-26T03:31:51.233Z,17.97
2023-09-26T03:34:53.746Z,17.96
2023-09-26T03:37:56.626Z,17.93
2023-09-26T03:41:04.685Z,17.98
2023-09-26T03:44:08.097Z,17.96
2023-09-26T03:47:10.818Z,17.95
2023-09-26T03:50:13.738Z,17.88
2023-09-26T03:53:16.286Z,17.91
2023-09-26T03:56:19.069Z,17.86
2023-09-26T03:59:21.517Z,17.90
2023-09-26T04:02:24.379Z,17.87
2023-09-26T04:05:27.179Z,17.92
2023-09-26T04:08:29.712Z,17.91
2023-09-26T04:11:32.530Z,17.93
2023-09-26T04:14:35.050Z,17.92
2023-09-26T04:17:39.155Z,17.94
2023-09-26T04:20:41.774Z,17.98
2023-09-26T04:23:44.480Z,17.99
2023-09-26T04:26:47.899Z,17.93
2023-09-26T04:29:53.004Z,17.98
2023-09-26T04:32:55.612Z,17.98
2023-09-26T04:35:58.600Z,17.93
2023-09-26T04:39:01.181Z,18.00
2023-09-26T04:42:05.610Z,18.00
2023-09-26T04:45:09.026Z,17.97
2023-09-26T04:48:11.868Z,17.90
2023-09-26T04:51:15.916Z,17.98
2023-09-26T04:54:18.823Z,17.92
2023-09-26T04:57:21.306Z,17.95
2023-09-26T05:00:24.054Z,17.99
2023-09-26T05:03:26.647Z,17.98
2023-09-26T05:06:30.650Z,17.98
2023-09-26T05:09:33.210Z,18.00
2023-09-26T05:12:41.457Z,17.99
2023-09-26T05:15:44.016Z,17.96
2023-09-26T05:18:47.590Z,18.01
2023-09-26T05:21:50.141Z,18.04
2023-09-26T05:24:52.998Z,18.08
2023-09-26T05:27:55.631Z,18.07
2023-09-26T05:30:58.768Z,18.13
2023-09-26T05:34:01.425Z,18.17
2023-09-26T05:37:04.241Z,18.18
2023-09-26T05:40:08.343Z,18.22
2023-09-26T05:43:11.249Z,18.21
2023-09-26T05:46:13.823Z,18.21
2023-09-26T05:49:16.724Z,18.22
2023-09-26T05:52:21.580Z,18.30
2023-09-26T05:55:24.567Z,18.44
2023-09-26T05:58:27.360Z,18.64
2023-09-26T06:01:30.242Z,18.81
2023-09-26T06:04:33.337Z,18.94
2023-09-26T06:07:36.012Z,19.02
2023-09-26T06:10:38.982Z,19.07
2023-09-26T06:13:43.939Z,19.20
2023-09-26T06:16:46.753Z,19.28
2023-09-26T06:19:49.268Z,19.34
2023-09-26T06:22:52.060Z,19.52
2023-09-26T06:25:59.130Z,19.60
2023-09-26T06:29:02.237Z,19.67
2023-09-26T06:32:04.846Z,19.75
2023-09-26T06:35:08.114Z,19.64
2023-09-26T06:38:10.582Z,19.63
2023-09-26T06:41:14.067Z,19.71
2023-09-26T06:44:16.665Z,19.76
2023-09-26T06:47:19.439Z,19.80
2023-09-26T06:50:22.707Z,19.93
2023-09-26T06:53:25.588Z,19.92
2023-09-26T06:56:28.785Z,19.98
2023-09-26T06:59:31.902Z,20.11
2023-09-26T07:02:35.039Z,20.28
2023-09-26T07:05:37.951Z,20.20
2023-09-26T07:08:42.328Z,20.30
2023-09-26T07:11:45.124Z,20.36
2023-09-26T07:14:49.050Z,20.43
2023-09-26T07:17:51.812Z,20.54
2023-09-26T07:20:54.742Z,20.69
2023-09-26T07:23:58.198Z,20.79
2023-09-26T07:27:00.962Z,20.80
2023-09-26T07:30:05.273Z,20.82
2023-09-26T07:33:07.741Z,20.92
2023-09-26T07:36:11.350Z,20.94
2023-09-26T07:39:15.957Z,21.11
2023-09-26T07:42:22.787Z,21.06
2023-09-26T07:45:25.270Z,21.30
2023-09-26T07:48:28.026Z,21.42
2023-09-26T07:51:30.487Z,21.61
2023-09-26T07:54:33.890Z,21.72
2023-09-26T07:57:36.313Z,22.01
2023-09-26T08:00:39.154Z,21.96
2023-09-26T08:03:44.916Z,21.94
2023-09-26T08:06:47.565Z,21.89
2023-09-26T08:09:50.408Z,21.96
2023-09-26T08:12:52.904Z,22.06
2023-09-26T08:15:55.748Z,22.56
2023-09-26T08:18:58.654Z,22.47
2023-09-26T08:22:02.020Z,22.45
2023-09-26T08:25:05.256Z,22.57
2023-09-26T08:28:08.305Z,22.72
2023-09-26T08:31:16.312Z,23.00
2023-09-26T08:34:19.378Z,23.18
2023-09-26T08:37:21.927Z,23.19
2023-09-26T08:40:28.551Z,23.58
2023-09-26T08:43:31.290Z,23.34
2023-09-26T08:46:35.428Z,23.51
2023-09-26T08:49:42.526Z,23.63
2023-09-26T08:52:45.431Z,23.78
2023-09-26T08:55:50.326Z,23.78
2023-09-26T08:58:55.974Z,24.00
2023-09-26T09:01:59.039Z,24.04
2023-09-26T09:05:02.098Z,24.40
2023-09-26T09:08:04.948Z,24.59
2023-09-26T09:11:07.932Z,24.51
2023-09-26T09:14:10.581Z,24.83
2023-09-26T09:17:13.446Z,24.82
2023-09-26T09:20:29.500Z,24.85
2023-09-26T09:23:47.344Z,24.98
2023-09-26T09:26:52.681Z,24.71
2023-09-26T09:30:20.576Z,24.95
2023-09-26T09:33:23.703Z,25.08
2023-09-26T09:36:27.378Z,25.29
2023-09-26T09:39:31.211Z,25.18
2023-09-26T09:42:34.143Z,25.39
2023-09-26T09:45:38.678Z,25.51
2023-09-26T09:48:44.162Z,25.57
2023-09-26T09:51:48.650Z,25.74
2023-09-26T09:54:56.449Z,25.90
2023-09-26T09:58:03.759Z,26.20
2023-09-26T10:01:08.129Z,26.19
2023-09-26T10:04:11.525Z,26.24
2023-09-26T10:07:14.494Z,26.16
2023-09-26T10:10:19.302Z,26.08
2023-09-26T10:13:35.847Z,26.20
2023-09-26T10:16:39.604Z,26.63
2023-09-26T10:23:11.062Z,26.31
2023-09-26T10:26:13.535Z,26.16
2023-09-26T10:29:16.213Z,26.22
2023-09-26T10:32:44.419Z,26.24
2023-09-26T10:35:47.313Z,26.68
2023-09-26T10:39:06.893Z,26.66
2023-09-26T10:45:33.249Z,27.31
2023-09-26T10:48:36.201Z,26.86
2023-09-26T10:51:39.081Z,26.97
2023-09-26T10:54:42.647Z,27.25
2023-09-26T10:57:46.227Z,27.04
2023-09-26T11:04:15.801Z,27.38
2023-09-26T11:07:19.499Z,27.62
2023-09-26T11:10:22.767Z,27.68
2023-09-26T11:13:26.532Z,27.91
2023-09-26T11:16:29.056Z,27.92
2023-09-26T11:19:31.956Z,27.78
2023-09-26T11:22:48.085Z,27.71
2023-09-26T11:25:54.273Z,27.72
2023-09-26T11:28:56.840Z,27.97
2023-09-26T11:31:59.669Z,27.67
2023-09-26T11:35:02.415Z,27.88
2023-09-26T11:38:06.084Z,28.11
2023-09-26T11:41:11.235Z,28.23
2023-09-26T11:44:16.220Z,27.97
2023-09-26T11:47:18.659Z,27.97
2023-09-26T11:50:22.205Z,28.22
2023-09-26T11:53:27.075Z,28.15
2023-09-26T11:56:30.196Z,28.11
2023-09-26T11:59:33.279Z,28.07
2023-09-26T12:02:36.111Z,28.22
2023-09-26T12:05:39.144Z,28.30
2023-09-26T12:08:41.631Z,28.40
2023-09-26T12:11:45.597Z,28.01
2023-09-26T12:14:49.871Z,28.00
2023-09-26T12:17:55.050Z,28.20
2023-09-26T12:20:58.351Z,28.19
2023-09-26T12:24:01.278Z,28.25
2023-09-26T12:27:05.225Z,28.32
2023-09-26T12:30:08.509Z,28.44
2023-09-26T12:33:11.312Z,28.32
2023-09-26T12:36:14.199Z,28.29
2023-09-26T12:39:16.628Z,28.27
2023-09-26T12:42:19.393Z,28.45
2023-09-26T12:45:21.968Z,28.55
2023-09-26T12:48:25.391Z,28.59
2023-09-26T12:51:29.696Z,28.66
2023-09-26T12:54:34.682Z,28.64
2023-09-26T12:57:38.353Z,28.54
2023-09-26T13:00:41.915Z,28.73
2023-09-26T13:03:44.460Z,28.46
2023-09-26T13:06:47.279Z,28.54
2023-09-26T13:09:51.062Z,28.70
2023-09-26T13:12:53.824Z,28.50
2023-09-26T13:15:57.047Z,28.55
2023-09-26T13:19:00.709Z,28.43
2023-09-26T13:22:03.236Z,28.49
2023-09-26T13:25:09.494Z,28.64
2023-09-26T13:28:12.616Z,28.55
2023-09-26T13:31:15.516Z,28.69
2023-09-26T13:34:18.129Z,28.77
2023-09-26T13:37:20.807Z,28.67
2023-09-26T13:40:23.532Z,28.64
2023-09-26T13:43:26.321Z,28.47
2023-09-26T13:46:29.057Z,28.52
2023-09-26T13:49:32.028Z,28.55
2023-09-26T13:52:34.723Z,28.67
2023-09-26T13:55:37.532Z,28.51
2023-09-26T13:58:40.072Z,28.43
2023-09-26T14:01:42.960Z,28.53
2023-09-26T14:07:51.783Z,28.34
2023-09-26T14:10:54.642Z,28.40
2023-09-26T14:13:57.085Z,28.35
2023-09-26T14:16:59.907Z,28.26
2023-09-26T14:20:02.508Z,28.19
2023-09-26T14:23:06.608Z,28.02
2023-09-26T14:26:10.318Z,28.12
2023-09-26T14:29:13.224Z,27.96
2023-09-26T14:32:15.777Z,27.95
2023-09-26T14:35:18.874Z,27.78
2023-09-26T14:38:21.321Z,27.76
2023-09-26T14:41:24.050Z,27.69
2023-09-26T14:44:26.629Z,27.63
2023-09-26T14:47:29.669Z,27.57
2023-09-26T14:50:32.098Z,27.52
2023-09-26T14:53:37.622Z,27.50
2023-09-26T14:56:42.169Z,27.42
2023-09-26T14:59:44.878Z,27.22
2023-09-26T15:02:48.640Z,27.22
2023-09-26T15:05:51.830Z,27.13
2023-09-26T15:08:54.371Z,27.08
2023-09-26T15:11:57.357Z,27.07
2023-09-26T15:14:59.825Z,27.02
2023-09-26T15:18:02.739Z,26.90
2023-09-26T15:21:05.238Z,26.90
2023-09-26T15:24:08.189Z,26.85
2023-09-26T15:27:10.581Z,26.80
2023-09-26T15:30:13.637Z,26.75
2023-09-26T15:33:16.229Z,26.61
2023-09-26T15:36:19.056Z,26.52
2023-09-26T15:39:22.464Z,26.54
2023-09-26T15:42:25.315Z,26.46
2023-09-26T15:45:27.932Z,26.46
2023-09-26T15:48:30.712Z,26.37
2023-09-26T15:51:33.572Z,26.35
2023-09-26T15:54:36.325Z,26.28
2023-09-26T15:57:39.256Z,26.25
2023-09-26T16:00:41.963Z,26.19
2023-09-26T16:03:46.162Z,26.09
2023-09-26T16:06:48.638Z,26.09
2023-09-26T16:09:51.509Z,26.01
2023-09-26T16:13:06.861Z,25.93
2023-09-26T16:16:13.437Z,25.89
2023-09-26T16:19:17.109Z,25.80
2023-09-26T16:22:21.292Z,25.74
2023-09-26T16:25:23.787Z,25.65
2023-09-26T16:28:26.583Z,25.52
2023-09-26T16:31:29.356Z,25.51
2023-09-26T16:34:33.095Z,25.40
2023-09-26T16:37:36.890Z,25.32
2023-09-26T16:40:45.448Z,25.22
2023-09-26T16:43:48.014Z,25.09
2023-09-26T16:46:50.834Z,24.97
2023-09-26T16:49:53.584Z,24.89
2023-09-26T16:52:58.768Z,24.78
2023-09-26T16:56:01.417Z,24.75
2023-09-26T16:59:06.685Z,24.75
2023-09-26T17:02:09.599Z,24.65
2023-09-26T17:05:13.127Z,24.62
2023-09-26T17:08:17.315Z,24.47
2023-09-26T17:11:22.070Z,24.50
2023-09-26T17:14:25.053Z,24.41
2023-09-26T17:17:28.158Z,24.34
2023-09-26T17:20:30.676Z,24.27
2023-09-26T17:23:33.345Z,24.20
2023-09-26T17:26:35.770Z,24.09
2023-09-26T17:29:38.432Z,24.03
2023-09-26T17:32:43.087Z,23.92
2023-09-26T17:35:47.213Z,23.93
2023-09-26T17:38:50.715Z,23.87
2023-09-26T17:41:53.395Z,23.77
2023-09-26T17:44:55.794Z,23.79
2023-09-26T17:47:58.704Z,23.69
2023-09-26T17:51:07.407Z,23.69
2023-09-26T17:54:10.223Z,23.65
2023-09-26T17:57:12.704Z,23.59
2023-09-26T18:00:16.439Z,23.50
2023-09-26T18:03:20.170Z,23.43
2023-09-26T18:06:23.050Z,23.36
2023-09-26T18:09:25.778Z,23.27
2023-09-26T18:12:28.319Z,23.16
2023-09-26T18:15:32.418Z,23.09
2023-09-26T18:18:35.046Z,22.98
2023-09-26T18:21:37.994Z,22.98
2023-09-26T18:24:40.398Z,22.97
2023-09-26T18:27:43.176Z,22.96
2023-09-26T18:30:45.714Z,22.89
2023-09-26T18:33:48.409Z,22.84
2023-09-26T18:36:50.860Z,22.78
2023-09-26T18:39:53.636Z,22.67
2023-09-26T18:42:56.108Z,22.64
2023-09-26T18:45:59.057Z,22.62
2023-09-26T18:49:01.969Z,22.53
2023-09-26T18:52:04.997Z,22.53
2023-09-26T18:55:07.907Z,22.49
2023-09-26T18:58:11.022Z,22.46
2023-09-26T19:01:13.601Z,22.42
2023-09-26T19:04:16.938Z,22.37
2023-09-26T19:07:19.468Z,22.34
2023-09-26T19:10:22.444Z,22.31
2023-09-26T19:13:24.920Z,22.27
2023-09-26T19:16:27.722Z,22.21
2023-09-26T19:19:30.244Z,22.21
2023-09-26T19:22:32.963Z,22.20
2023-09-26T19:25:37.597Z,22.20
2023-09-26T19:28:40.350Z,22.12
2023-09-26T19:31:42.918Z,22.15
2023-09-26T19:34:45.766Z,22.07
2023-09-26T19:37:48.194Z,22.08
2023-09-26T19:40:50.895Z,22.02
2023-09-26T19:43:53.358Z,21.98
2023-09-26T19:46:56.948Z,21.96
2023-09-26T19:49:59.473Z,21.93
2023-09-26T19:53:02.183Z,21.86
2023-09-26T19:56:04.960Z,21.84
2023-09-26T19:59:07.730Z,21.79
2023-09-26T20:02:11.513Z,21.70
2023-09-26T20:05:14.669Z,21.64
2023-09-26T20:08:17.449Z,21.64
2023-09-26T20:11:20.245Z,21.65
2023-09-26T20:14:22.713Z,21.53
2023-09-26T20:17:25.782Z,21.49
2023-09-26T20:20:28.572Z,21.53
2023-09-26T20:23:31.366Z,21.54
2023-09-26T20:26:33.767Z,21.51
2023-09-26T20:29:36.575Z,21.49
2023-09-26T20:32:39.146Z,21.51
2023-09-26T20:35:41.919Z,21.46
2023-09-26T20:38:44.381Z,21.37
2023-09-26T20:41:47.095Z,21.39
2023-09-26T20:44:49.575Z,21.38
2023-09-26T20:47:52.618Z,21.36
2023-09-26T20:50:55.198Z,21.33
2023-09-26T20:53:57.894Z,21.28
2023-09-26T20:57:00.328Z,21.28
2023-09-26T21:00:05.616Z,21.23
2023-09-26T21:03:08.268Z,21.25
2023-09-26T21:06:13.027Z,21.23
2023-09-26T21:09:15.475Z,21.19
2023-09-26T21:12:18.135Z,21.19
2023-09-26T21:15:23.566Z,21.17
2023-09-26T21:18:26.452Z,21.13
2023-09-26T21:21:29.467Z,21.11
2023-09-26T21:24:32.352Z,21.07
2023-09-26T21:27:34.800Z,21.05
2023-09-26T21:30:38.078Z,21.04
2023-09-26T21:33:40.499Z,21.03
2023-09-26T21:36:43.258Z,20.98
2023-09-26T21:39:45.650Z,20.94
2023-09-26T21:42:48.530Z,20.89
2023-09-26T21:45:52.280Z,20.88
2023-09-26T21:48:55.555Z,20.86
2023-09-26T21:51:58.332Z,20.83
2023-09-26T21:55:01.008Z,20.86
2023-09-26T21:58:03.885Z,20.82
2023-09-26T22:01:06.574Z,20.82
2023-09-26T22:04:09.433Z,20.85
2023-09-26T22:07:11.948Z,20.86
2023-09-26T22:10:15.275Z,20.85
2023-09-26T22:13:18.938Z,20.92
2023-09-26T22:16:22.350Z,20.92
2023-09-26T22:19:24.824Z,20.89
2023-09-26T22:22:27.612Z,20.82
2023-09-26T22:25:30.124Z,20.70
2023-09-26T22:28:32.926Z,20.61
2023-09-26T22:31:35.583Z,20.58
2023-09-26T22:34:39.042Z,20.47
2023-09-26T22:37:41.562Z,20.41
2023-09-26T22:40:50.885Z,20.34
2023-09-26T22:43:54.330Z,20.38
2023-09-26T22:46:57.334Z,20.42
2023-09-26T22:50:01.270Z,20.44
2023-09-26T22:53:04.745Z,20.47
2023-09-26T22:56:07.272Z,20.53
2023-09-26T22:59:10.138Z,20.50
2023-09-26T23:02:13.062Z,20.47
2023-09-26T23:05:16.306Z,20.44
2023-09-26T23:08:19.122Z,20.42
2023-09-26T23:11:21.907Z,20.26
2023-09-26T23:14:24.796Z,20.21
2023-09-26T23:17:27.992Z,20.05
2023-09-26T23:20:30.552Z,20.00
2023-09-26T23:23:33.401Z,19.96
2023-09-26T23:26:35.789Z,19.92
2023-09-26T23:29:39.912Z,19.90
2023-09-26T23:32:42.903Z,19.84
2023-09-26T23:35:46.093Z,19.74
2023-09-26T23:38:48.455Z,19.78
2023-09-26T23:41:52.499Z,19.75
2023-09-26T23:44:54.956Z,19.76
2023-09-26T23:47:57.855Z,19.70
2023-09-26T23:51:00.470Z,19.61
2023-09-26T23:54:03.615Z,19.65
2023-09-26T23:57:05.989Z,19.48
